Monday, December 18, 2017, 12:55 PM GMT
Back to Local

CYQI, Yarmouth, N. S.

Location: , , Canada Lat: 43.833
Local Time: 12:55 PM GMT (12:55 GMT) Lon: -66.083
Time Zone: GMT Elev: 141 ft

Show me the last for .
Show Coded

Time T Td Feel RH Dir Speed Gust Alt SLP Vis Weather Sky Remarks
2017-12-18 12:00 18 12 11 78 100° 5 - 30.18 30.19 15 FEW022 FEW160 BKN250 None
2017-12-18 11:00 19 12 11 73 80° 6 - 30.18 30.19 15 BKN022 None
2017-12-18 10:00 19 12 11 73 50° 6 - 30.19 30.21 15 OVC025 None
2017-12-18 09:00 19 12 13 73 40° 5 - 30.19 30.20 15 BKN026 None
2017-12-18 08:00 19 12 13 73 40° 5 - 30.19 30.20 15 OVC023 None
2017-12-18 07:00 19 12 10 73 30° 7 - 30.18 30.19 15 VCSH OVC025 None
2017-12-18 06:00 21 14 11 73 20° 9 - 30.17 30.18 15 VCSH OVC022 None
2017-12-18 05:36 21 14 11 73 20° 9 - 30.17 30.18 15 OVC022 None
2017-12-18 05:00 21 14 13 73 360° 7 - 30.17 30.19 15 -SHSN OVC022 None
2017-12-18 04:17 21 14 12 73 20° 8 - 30.19 30.20 15 -SHSN BKN025 None
2017-12-18 04:00 23 14 13 67 340° 9 - 30.19 30.20 15 BKN025 None
2017-12-18 03:00 21 10 9 62 350° 12 - 30.18 30.19 15 SCT030 None
2017-12-18 02:08 23 12 9 62 350° 13 18 30.17 30.18 15 OVC032 None
2017-12-18 02:00 23 12 10 62 360° 16 - 30.17 30.18 15 OVC032 None
2017-12-18 01:47 23 12 8 62 360° 14 22 30.17 30.18 15 -SHSN OVC032 None
2017-12-18 01:00 23 12 10 62 340° 16 - 30.16 30.17 15 OVC030 None
2017-12-18 00:00 25 12 13 58 350° 14 - 30.14 30.16 15 BKN028 None
2017-12-17 23:00 25 12 9 58 330° 18 25 30.12 30.13 15 BKN029 None
2017-12-17 22:00 25 14 11 62 330° 14 20 30.10 30.11 15 BKN037 None
2017-12-17 21:00 25 14 11 62 320° 13 20 30.10 30.11 15 BKN036 None
2017-12-17 20:42 25 14 10 62 320° 12 21 30.10 30.11 15 BKN028 None
2017-12-17 20:19 25 14 11 62 330° 17 - 30.10 30.11 15 -SHSN BKN032 None
2017-12-17 20:00 25 14 11 62 330° 12 20 30.09 30.11 15 BKN039 None
2017-12-17 19:00 25 14 12 62 310° 16 - 30.09 30.10 15 BKN033 None
2017-12-17 18:00 25 14 10 62 330° 14 22 30.09 30.10 15 BKN030 None
2017-12-17 17:37 25 14 11 62 330° 18 - 30.09 30.10 15 BKN033 None
2017-12-17 17:00 25 14 12 62 340° 16 - 30.09 30.10 15 -SHSN BKN027 None
2017-12-17 16:00 25 14 10 62 340° 16 22 30.10 30.11 15 BKN029 None
2017-12-17 15:00 23 12 9 62 350° 17 - 30.12 30.13 15 BKN034 None
2017-12-17 14:00 25 14 9 62 350° 18 25 30.12 30.13 15 BKN026 None
2017-12-17 13:00 23 12 8 62 330° 15 21 30.11 30.12 15 BKN029 None

Support USWX by starting your Amazon purchase here.